createdAt,value
2018-01-22T00:00:32.984Z,1004.7
2018-01-22T00:01:34.470Z,1004.7
2018-01-22T00:02:35.871Z,1004.8
2018-01-22T00:03:37.264Z,1004.9
2018-01-22T00:04:38.661Z,1004.9
2018-01-22T00:05:40.058Z,1004.9
2018-01-22T00:06:41.671Z,1004.9
2018-01-22T00:07:43.076Z,1004.9
2018-01-22T00:08:44.469Z,1005.0
2018-01-22T00:09:45.994Z,1005.0
2018-01-22T00:10:47.392Z,1004.8
2018-01-22T00:11:48.784Z,1004.8
2018-01-22T00:12:50.323Z,1004.7
2018-01-22T00:13:51.721Z,1004.7
2018-01-22T00:14:53.122Z,1004.7
2018-01-22T00:15:54.633Z,1004.7
2018-01-22T00:16:56.032Z,1004.8
2018-01-22T00:17:57.429Z,1004.6
2018-01-22T00:18:58.956Z,1004.6
2018-01-22T00:20:00.356Z,1004.5
2018-01-22T00:21:01.835Z,1004.5
2018-01-22T00:22:03.236Z,1004.4
2018-01-22T00:23:04.716Z,1004.3
2018-01-22T00:24:06.118Z,1004.3
2018-01-22T00:25:07.598Z,1004.2
2018-01-22T00:26:08.994Z,1004.2
2018-01-22T00:27:10.568Z,1004.1
2018-01-22T00:28:11.969Z,1004.1
2018-01-22T00:29:13.528Z,1004.0
2018-01-22T00:30:15.007Z,1004.0
2018-01-22T00:31:16.404Z,1004.0
2018-01-22T00:32:17.802Z,1003.9
2018-01-22T00:33:19.328Z,1003.9
2018-01-22T00:34:20.723Z,1003.7
2018-01-22T00:35:22.413Z,1003.7
2018-01-22T00:36:23.808Z,1003.7
2018-01-22T00:37:25.292Z,1003.6
2018-01-22T00:38:26.691Z,1003.6
2018-01-22T00:39:28.088Z,1003.6
2018-01-22T00:40:30.421Z,1003.6
2018-01-22T00:41:31.821Z,1003.6
2018-01-22T00:42:33.213Z,1003.6
2018-01-22T00:43:34.756Z,1003.6
2018-01-22T00:44:36.158Z,1003.6
2018-01-22T00:45:37.552Z,1003.6
2018-01-22T00:46:39.076Z,1003.5
2018-01-22T00:47:40.473Z,1003.6
2018-01-22T00:48:41.872Z,1003.5
2018-01-22T00:49:43.396Z,1003.5
2018-01-22T00:50:44.796Z,1003.5
2018-01-22T00:51:46.280Z,1003.5
2018-01-22T00:52:47.676Z,1003.5
2018-01-22T00:53:49.076Z,1003.6
2018-01-22T00:54:50.596Z,1003.5
2018-01-22T00:55:51.996Z,1003.5
2018-01-22T00:56:53.397Z,1003.4
2018-01-22T00:57:54.918Z,1003.3
2018-01-22T00:58:56.322Z,1003.2
2018-01-22T00:59:57.727Z,1003.2
2018-01-22T01:00:59.240Z,1003.3
2018-01-22T01:02:00.643Z,1003.2
2018-01-22T01:03:02.120Z,1003.2
2018-01-22T01:04:03.521Z,1003.2
2018-01-22T01:05:05.008Z,1003.1
2018-01-22T01:06:06.397Z,1003.0
2018-01-22T01:07:07.886Z,1003.0
2018-01-22T01:08:09.659Z,1002.9
2018-01-22T01:09:11.173Z,1002.8
2018-01-22T01:10:12.569Z,1002.9
2018-01-22T01:11:14.055Z,1002.8
2018-01-22T01:12:15.459Z,1002.8
2018-01-22T01:13:16.934Z,1002.7
2018-01-22T01:14:18.338Z,1002.6
2018-01-22T01:15:19.815Z,1002.6
2018-01-22T01:16:21.210Z,1002.6
2018-01-22T01:17:22.694Z,1002.5
2018-01-22T01:18:24.093Z,1002.5
2018-01-22T01:19:25.490Z,1002.6
2018-01-22T01:20:27.394Z,1002.5
2018-01-22T01:21:28.789Z,1002.5
2018-01-22T01:22:30.191Z,1002.4
2018-01-22T01:23:31.749Z,1002.4
2018-01-22T01:24:33.153Z,1002.4
2018-01-22T01:25:34.544Z,1002.5
2018-01-22T01:26:36.071Z,1002.5
2018-01-22T01:27:37.478Z,1002.5
2018-01-22T01:28:38.878Z,1002.5
2018-01-22T01:29:40.392Z,1002.6
2018-01-22T01:30:41.790Z,1002.6
2018-01-22T01:31:43.187Z,1002.6
2018-01-22T01:32:44.712Z,1002.5
2018-01-22T01:33:46.117Z,1002.5
2018-01-22T01:34:47.544Z,1002.5
2018-01-22T01:35:49.036Z,1002.5
2018-01-22T01:36:50.432Z,1002.5
2018-01-22T01:37:51.915Z,1002.5
2018-01-22T01:38:53.311Z,1002.5
2018-01-22T01:39:54.795Z,1002.4
2018-01-22T01:40:56.194Z,1002.4
2018-01-22T01:41:57.675Z,1002.4
2018-01-22T01:42:59.073Z,1002.4
2018-01-22T01:44:00.555Z,1002.4
2018-01-22T01:45:01.954Z,1002.3
2018-01-22T01:46:03.437Z,1002.3
2018-01-22T01:47:04.835Z,1002.3
2018-01-22T01:48:06.319Z,1002.3
2018-01-22T01:49:07.717Z,1002.3
2018-01-22T01:50:09.198Z,1002.2
2018-01-22T01:51:10.594Z,1002.3
2018-01-22T01:52:12.079Z,1002.3
2018-01-22T01:53:13.476Z,1002.3
2018-01-22T01:54:14.958Z,1002.3
2018-01-22T01:55:16.360Z,1002.2
2018-01-22T01:56:17.838Z,1002.2
2018-01-22T01:57:19.240Z,1002.2
2018-01-22T01:58:20.721Z,1002.2
2018-01-22T01:59:22.116Z,1002.2
2018-01-22T02:00:23.602Z,1002.1
2018-01-22T02:01:25.410Z,1002.1
2018-01-22T02:02:26.892Z,1002.1
2018-01-22T02:03:28.291Z,1002.0
2018-01-22T02:04:29.774Z,1002.0
2018-01-22T02:05:31.171Z,1001.9
2018-01-22T02:06:32.654Z,1001.9
2018-01-22T02:07:34.054Z,1001.9
2018-01-22T02:08:35.534Z,1001.8
2018-01-22T02:09:36.933Z,1001.8
2018-01-22T02:10:38.415Z,1001.8
2018-01-22T02:11:39.814Z,1001.7
2018-01-22T02:12:41.297Z,1001.8
2018-01-22T02:13:42.695Z,1001.7
2018-01-22T02:14:44.177Z,1001.8
2018-01-22T02:15:45.578Z,1001.8
2018-01-22T02:16:47.056Z,1001.7
2018-01-22T02:17:48.455Z,1001.7
2018-01-22T02:18:49.960Z,1001.7
2018-01-22T02:19:51.360Z,1001.7
2018-01-22T02:20:52.758Z,1001.6
2018-01-22T02:21:54.259Z,1001.6
2018-01-22T02:22:55.657Z,1001.6
2018-01-22T02:23:57.057Z,1001.6
2018-01-22T02:24:58.587Z,1001.6
2018-01-22T02:25:59.988Z,1001.7
2018-01-22T02:27:01.382Z,1001.6
2018-01-22T02:28:02.903Z,1001.7
2018-01-22T02:29:04.397Z,1001.6
2018-01-22T02:30:05.788Z,1001.6
2018-01-22T02:31:07.427Z,1001.6
2018-01-22T02:32:08.825Z,1001.7
2018-01-22T02:33:10.309Z,1001.6
2018-01-22T02:34:11.704Z,1001.5
2018-01-22T02:35:13.103Z,1001.5
2018-01-22T02:36:14.631Z,1001.5
2018-01-22T02:37:16.026Z,1001.5
2018-01-22T02:38:17.428Z,1001.5
2018-01-22T02:39:18.952Z,1001.5
2018-01-22T02:40:20.353Z,1001.5
2018-01-22T02:41:21.751Z,1001.5
2018-01-22T02:42:23.268Z,1001.4
2018-01-22T02:43:24.670Z,1001.4
2018-01-22T02:44:26.067Z,1001.4
2018-01-22T02:45:27.590Z,1001.3
2018-01-22T02:46:28.993Z,1001.3
2018-01-22T02:47:30.473Z,1001.3
2018-01-22T02:48:31.872Z,1001.2
2018-01-22T02:49:33.351Z,1001.2
2018-01-22T02:50:34.756Z,1001.2
2018-01-22T02:51:36.239Z,1001.2
2018-01-22T02:52:37.633Z,1001.2
2018-01-22T02:53:39.038Z,1001.2
2018-01-22T02:54:40.557Z,1001.2
2018-01-22T02:55:41.952Z,1001.2
2018-01-22T02:56:43.434Z,1001.1
2018-01-22T02:57:44.832Z,1001.0
2018-01-22T02:58:46.318Z,1000.9
2018-01-22T02:59:47.717Z,1000.8
2018-01-22T03:00:49.201Z,1000.8
2018-01-22T03:01:50.600Z,1000.8
2018-01-22T03:02:52.080Z,1000.7
2018-01-22T03:03:53.476Z,1000.8
2018-01-22T03:04:54.961Z,1000.7
2018-01-22T03:05:56.362Z,1000.7
2018-01-22T03:06:57.842Z,1000.7
2018-01-22T03:07:59.241Z,1000.7
2018-01-22T03:09:00.722Z,1000.6
2018-01-22T03:10:02.118Z,1000.7
2018-01-22T03:11:03.518Z,1000.6
2018-01-22T03:12:05.043Z,1000.6
2018-01-22T03:13:06.440Z,1000.6
2018-01-22T03:14:07.839Z,1000.5
2018-01-22T03:15:09.363Z,1000.5
2018-01-22T03:16:10.767Z,1000.4
2018-01-22T03:17:12.245Z,1000.5
2018-01-22T03:18:13.644Z,1000.5
2018-01-22T03:19:15.125Z,1000.5
2018-01-22T03:20:16.526Z,1000.5
2018-01-22T03:21:17.927Z,1000.5
2018-01-22T03:22:19.744Z,1000.6
2018-01-22T03:23:21.146Z,1000.6
2018-01-22T03:24:22.542Z,1000.6
2018-01-22T03:25:23.973Z,1000.5
2018-01-22T03:26:25.371Z,1000.6
2018-01-22T03:27:26.853Z,1000.6
2018-01-22T03:28:28.253Z,1000.5
2018-01-22T03:29:29.734Z,1000.5
2018-01-22T03:30:31.134Z,1000.4
2018-01-22T03:31:32.617Z,1000.3
2018-01-22T03:32:34.041Z,1000.3
2018-01-22T03:33:35.495Z,1000.3
2018-01-22T03:34:36.893Z,1000.2
2018-01-22T03:35:38.290Z,1000.3
2018-01-22T03:36:39.817Z,1000.3
2018-01-22T03:37:41.218Z,1000.3
2018-01-22T03:38:42.617Z,1000.3
2018-01-22T03:39:44.138Z,1000.3
2018-01-22T03:40:45.533Z,1000.3
2018-01-22T03:41:46.934Z,1000.4
2018-01-22T03:42:48.465Z,1000.3
2018-01-22T03:43:49.871Z,1000.4
2018-01-22T03:44:51.270Z,1000.4
2018-01-22T03:45:52.781Z,1000.4
2018-01-22T03:46:54.178Z,1000.3
2018-01-22T03:47:55.571Z,1000.3
2018-01-22T03:48:57.101Z,1000.3
2018-01-22T03:49:58.501Z,1000.3
2018-01-22T03:50:59.902Z,1000.3
2018-01-22T03:52:01.423Z,1000.3
2018-01-22T03:53:02.819Z,1000.3
2018-01-22T03:54:04.216Z,1000.3
2018-01-22T03:55:05.845Z,1000.3
2018-01-22T03:56:07.245Z,1000.3
2018-01-22T03:57:08.645Z,1000.4
2018-01-22T03:58:10.167Z,1000.3
2018-01-22T03:59:11.573Z,1000.4
2018-01-22T04:00:13.350Z,1000.3
2018-01-22T04:01:14.901Z,1000.3
2018-01-22T04:02:16.300Z,1000.3
2018-01-22T04:03:17.697Z,1000.2
2018-01-22T04:04:19.242Z,1000.1
2018-01-22T04:05:20.641Z,1000.1
2018-01-22T04:06:22.038Z,1000.0
2018-01-22T04:07:23.745Z,1000.0
2018-01-22T04:08:25.146Z,1000.0
2018-01-22T04:09:26.831Z,1000.0
2018-01-22T04:10:28.230Z,1000.0
2018-01-22T04:11:29.671Z,1000.0
2018-01-22T04:12:31.152Z,1000.0
2018-01-22T04:13:32.555Z,1000.1
2018-01-22T04:14:33.948Z,1000.1
2018-01-22T04:15:35.476Z,1000.2
2018-01-22T04:16:36.899Z,1000.1
2018-01-22T04:17:38.559Z,1000.2
2018-01-22T04:18:39.958Z,1000.1
2018-01-22T04:19:41.646Z,1000.1
2018-01-22T04:20:43.047Z,1000.1
2018-01-22T04:21:44.445Z,1000.1
2018-01-22T04:22:45.966Z,1000.1
2018-01-22T04:23:47.365Z,1000.0
2018-01-22T04:24:48.762Z,1000.1
2018-01-22T04:25:50.285Z,1000.0
2018-01-22T04:26:51.687Z,1000.0
2018-01-22T04:27:53.089Z,999.9
2018-01-22T04:28:55.400Z,999.9
2018-01-22T04:29:56.797Z,999.9
2018-01-22T04:30:58.197Z,999.8
2018-01-22T04:31:59.745Z,999.8
2018-01-22T04:33:01.146Z,999.7
2018-01-22T04:34:02.545Z,999.7
2018-01-22T04:35:04.067Z,999.7
2018-01-22T04:36:05.469Z,999.8
2018-01-22T04:37:06.860Z,999.8
2018-01-22T04:38:08.392Z,999.8
2018-01-22T04:39:09.788Z,999.9
2018-01-22T04:40:11.475Z,999.9
2018-01-22T04:41:12.873Z,999.9
2018-01-22T04:42:14.566Z,1000.0
2018-01-22T04:43:15.963Z,999.9
2018-01-22T04:44:17.660Z,999.8
2018-01-22T04:45:19.060Z,999.9
2018-01-22T04:46:20.731Z,999.8
2018-01-22T04:47:22.151Z,999.8
2018-01-22T04:48:23.817Z,999.8
2018-01-22T04:49:25.217Z,999.8
2018-01-22T04:50:26.906Z,999.7
2018-01-22T04:51:28.309Z,999.7
2018-01-22T04:52:29.989Z,999.7
2018-01-22T04:53:31.387Z,999.7
2018-01-22T04:54:33.083Z,999.7
2018-01-22T04:55:34.497Z,999.7
2018-01-22T04:56:35.886Z,999.7
2018-01-22T04:57:37.400Z,999.7
2018-01-22T04:58:38.794Z,999.6
2018-01-22T04:59:40.202Z,999.5
2018-01-22T05:00:42.102Z,999.4
2018-01-22T05:01:43.508Z,999.4
2018-01-22T05:02:45.212Z,999.4
2018-01-22T05:03:46.614Z,999.4
2018-01-22T05:04:48.302Z,999.4
2018-01-22T05:05:49.700Z,999.3
2018-01-22T05:06:51.480Z,999.3
2018-01-22T05:07:53.042Z,999.3
2018-01-22T05:08:54.470Z,999.3
2018-01-22T05:09:55.868Z,999.2
2018-01-22T05:10:57.560Z,999.2
2018-01-22T05:11:58.953Z,999.2
2018-01-22T05:13:00.355Z,999.2
2018-01-22T05:14:01.876Z,999.2
2018-01-22T05:15:03.274Z,999.2
2018-01-22T05:16:04.671Z,999.2
2018-01-22T05:17:06.198Z,999.2
2018-01-22T05:18:07.597Z,999.2
2018-01-22T05:19:08.994Z,999.2
2018-01-22T05:20:10.524Z,999.2
2018-01-22T05:21:11.911Z,999.2
2018-01-22T05:22:13.306Z,999.1
2018-01-22T05:23:14.846Z,999.1
2018-01-22T05:24:16.239Z,999.1
2018-01-22T05:25:17.929Z,999.0
2018-01-22T05:26:19.324Z,999.1
2018-01-22T05:27:21.013Z,999.0
2018-01-22T05:28:36.761Z,999.0
2018-01-22T05:29:38.322Z,999.0
2018-01-22T05:30:40.020Z,999.0
2018-01-22T05:31:44.041Z,999.0
2018-01-22T05:32:45.432Z,999.0
2018-01-22T05:33:47.066Z,999.0
2018-01-22T05:34:48.466Z,999.0
2018-01-22T05:35:50.152Z,999.0
2018-01-22T05:36:51.553Z,999.0
2018-01-22T05:37:52.950Z,999.0
2018-01-22T05:38:54.475Z,999.1
2018-01-22T05:39:55.868Z,999.0
2018-01-22T05:40:58.088Z,999.1
2018-01-22T05:41:59.613Z,999.0
2018-01-22T05:43:01.007Z,999.0
2018-01-22T05:44:02.697Z,999.0
2018-01-22T05:45:04.133Z,999.1
2018-01-22T05:46:05.790Z,999.1
2018-01-22T05:47:07.179Z,999.1
2018-01-22T05:48:08.578Z,999.1
2018-01-22T05:49:10.101Z,999.1
2018-01-22T05:50:11.495Z,999.0
2018-01-22T05:51:12.892Z,999.0
2018-01-22T05:52:14.427Z,999.0
2018-01-22T05:53:15.822Z,999.0
2018-01-22T05:54:17.507Z,999.0
2018-01-22T05:55:18.898Z,999.0
2018-01-22T05:56:20.593Z,998.9
2018-01-22T05:57:21.992Z,998.9
2018-01-22T05:58:23.389Z,999.0
2018-01-22T05:59:24.919Z,998.9
2018-01-22T06:00:26.312Z,999.0
2018-01-22T06:01:27.713Z,999.0
2018-01-22T06:02:29.238Z,999.0
2018-01-22T06:03:30.629Z,998.9
2018-01-22T06:04:32.323Z,999.0
2018-01-22T06:05:33.717Z,998.9
2018-01-22T06:06:35.413Z,998.9
2018-01-22T06:07:36.807Z,998.9
2018-01-22T06:08:38.494Z,999.0
2018-01-22T06:09:40.276Z,998.9
2018-01-22T06:10:41.786Z,998.8
2018-01-22T06:11:43.184Z,998.9
2018-01-22T06:12:44.586Z,998.8
2018-01-22T06:13:46.105Z,998.8
2018-01-22T06:14:47.503Z,998.7
2018-01-22T06:15:48.906Z,998.8
2018-01-22T06:16:50.429Z,998.7
2018-01-22T06:17:51.824Z,998.8
2018-01-22T06:18:53.513Z,998.8
2018-01-22T06:19:55.028Z,998.8
2018-01-22T06:21:02.763Z,998.9
2018-01-22T06:22:03.816Z,998.9
2018-01-22T06:23:06.015Z,998.9
2018-01-22T06:24:10.134Z,998.8
2018-01-22T06:25:11.970Z,998.8
2018-01-22T06:26:13.665Z,998.9
2018-01-22T06:27:15.275Z,998.9
2018-01-22T06:28:16.669Z,998.9
2018-01-22T06:29:19.072Z,998.9
2018-01-22T06:30:20.996Z,998.9
2018-01-22T06:31:23.316Z,998.9
2018-01-22T06:32:25.374Z,998.9
2018-01-22T06:33:27.479Z,998.8
2018-01-22T06:34:29.350Z,998.9
2018-01-22T06:35:31.300Z,998.8
2018-01-22T06:36:33.331Z,998.9
2018-01-22T06:37:35.490Z,998.9
2018-01-22T06:38:37.533Z,998.9
2018-01-22T06:39:39.112Z,998.9
2018-01-22T06:40:40.512Z,999.0
2018-01-22T06:41:42.973Z,998.9
2018-01-22T06:42:45.173Z,999.0
2018-01-22T06:43:46.716Z,999.0
2018-01-22T06:44:48.677Z,999.0
2018-01-22T06:45:51.262Z,999.0
2018-01-22T06:46:53.204Z,999.1
2018-01-22T06:47:55.419Z,999.0
2018-01-22T06:48:57.324Z,999.1
2018-01-22T06:49:59.457Z,999.0
2018-01-22T06:51:01.041Z,999.1
2018-01-22T06:52:03.597Z,999.1
2018-01-22T06:53:04.954Z,999.1
2018-01-22T06:54:06.516Z,999.2
2018-01-22T06:55:08.663Z,999.2
2018-01-22T06:56:10.597Z,999.2
2018-01-22T06:57:12.442Z,999.3
2018-01-22T06:58:14.550Z,999.2
2018-01-22T06:59:16.596Z,999.2
2018-01-22T07:00:17.933Z,999.2
2018-01-22T07:01:19.519Z,999.2
2018-01-22T07:02:20.923Z,999.3
2018-01-22T07:03:22.318Z,999.2
2018-01-22T07:04:23.919Z,999.2
2018-01-22T07:05:25.318Z,999.3
2018-01-22T07:06:26.925Z,999.2
2018-01-22T07:07:28.324Z,999.2
2018-01-22T07:08:29.728Z,999.3
2018-01-22T07:09:31.130Z,999.3
2018-01-22T07:10:32.544Z,999.3
2018-01-22T07:11:33.944Z,999.3
2018-01-22T07:12:35.345Z,999.3
2018-01-22T07:13:36.749Z,999.3
2018-01-22T07:14:38.150Z,999.3
2018-01-22T07:15:39.693Z,999.2
2018-01-22T07:16:41.116Z,999.1
2018-01-22T07:17:42.569Z,999.1
2018-01-22T07:18:43.968Z,999.2
2018-01-22T07:19:45.374Z,999.2
2018-01-22T07:20:46.773Z,999.2
2018-01-22T07:21:48.331Z,999.2
2018-01-22T07:22:49.731Z,999.3
2018-01-22T07:23:51.212Z,999.3
2018-01-22T07:24:52.611Z,999.2
2018-01-22T07:25:54.092Z,999.2
2018-01-22T07:26:55.492Z,999.1
2018-01-22T07:27:56.892Z,999.1
2018-01-22T07:28:58.416Z,999.1
2018-01-22T07:29:59.834Z,999.1
2018-01-22T07:31:01.226Z,999.2
2018-01-22T07:32:02.737Z,999.1
2018-01-22T07:33:04.142Z,999.1
2018-01-22T07:34:05.542Z,999.1
2018-01-22T07:35:07.062Z,999.1
2018-01-22T07:36:08.455Z,999.1
2018-01-22T07:37:09.852Z,999.1
2018-01-22T07:38:11.394Z,999.1
2018-01-22T07:39:12.780Z,999.2
2018-01-22T07:40:14.347Z,999.2
2018-01-22T07:41:15.745Z,999.2
2018-01-22T07:42:17.348Z,999.2
2018-01-22T07:43:18.746Z,999.3
2018-01-22T07:44:20.153Z,999.2
2018-01-22T07:45:21.668Z,999.3
2018-01-22T07:46:23.070Z,999.3
2018-01-22T07:47:24.470Z,999.3
2018-01-22T07:48:25.987Z,999.3
2018-01-22T07:49:27.377Z,999.4
2018-01-22T07:50:28.870Z,999.3
2018-01-22T07:51:30.267Z,999.4
2018-01-22T07:52:31.749Z,999.3
2018-01-22T07:53:33.152Z,999.3
2018-01-22T07:54:34.632Z,999.4
2018-01-22T07:55:36.035Z,999.4
2018-01-22T07:56:37.511Z,999.4
2018-01-22T07:57:38.915Z,999.5
2018-01-22T07:58:40.314Z,999.5
2018-01-22T07:59:41.837Z,999.5
2018-01-22T08:00:43.234Z,999.4
2018-01-22T08:01:44.636Z,999.5
2018-01-22T08:02:46.160Z,999.5
2018-01-22T08:03:47.561Z,999.6
2018-01-22T08:04:48.961Z,999.6
2018-01-22T08:05:50.481Z,999.5
2018-01-22T08:06:51.880Z,999.6
2018-01-22T08:07:53.280Z,999.6
2018-01-22T08:08:54.802Z,999.6
2018-01-22T08:09:56.202Z,999.6
2018-01-22T08:10:57.606Z,999.5
2018-01-22T08:11:59.125Z,999.4
2018-01-22T08:13:00.525Z,999.5
2018-01-22T08:14:01.927Z,999.5
2018-01-22T08:15:03.447Z,999.5
2018-01-22T08:16:04.850Z,999.5
2018-01-22T08:17:06.378Z,999.5
2018-01-22T08:18:07.729Z,999.5
2018-01-22T08:19:09.164Z,999.5
2018-01-22T08:20:10.671Z,999.5
2018-01-22T08:21:12.050Z,999.4
2018-01-22T08:22:13.460Z,999.4
2018-01-22T08:23:14.970Z,999.4
2018-01-22T08:24:16.371Z,999.4
2018-01-22T08:25:17.777Z,999.5
2018-01-22T08:26:19.291Z,999.4
2018-01-22T08:27:20.701Z,999.4
2018-01-22T08:28:22.054Z,999.5
2018-01-22T08:29:23.621Z,999.4
2018-01-22T08:30:25.023Z,999.4
2018-01-22T08:31:26.426Z,999.5
2018-01-22T08:32:27.936Z,999.5
2018-01-22T08:33:29.335Z,999.5
2018-01-22T08:34:30.739Z,999.4
2018-01-22T08:35:32.258Z,999.4
2018-01-22T08:36:33.672Z,999.5
2018-01-22T08:37:35.076Z,999.5
2018-01-22T08:38:36.999Z,999.4
2018-01-22T08:39:38.402Z,999.5
2018-01-22T08:40:39.870Z,999.4
2018-01-22T08:41:41.270Z,999.4
2018-01-22T08:42:42.752Z,999.4
2018-01-22T08:43:44.151Z,999.6
2018-01-22T08:44:46.655Z,999.6
2018-01-22T08:45:48.056Z,999.6
2018-01-22T08:46:49.942Z,999.5
2018-01-22T08:47:51.329Z,999.5
2018-01-22T08:48:52.828Z,999.6
2018-01-22T08:49:54.229Z,999.6
2018-01-22T08:50:55.709Z,999.7
2018-01-22T08:51:57.112Z,999.6
2018-01-22T08:52:58.592Z,999.7
2018-01-22T08:53:59.994Z,999.7
2018-01-22T08:55:01.473Z,999.8
2018-01-22T08:56:02.875Z,999.8
2018-01-22T08:57:04.352Z,999.8
2018-01-22T08:58:05.753Z,999.8
2018-01-22T08:59:07.156Z,999.8
2018-01-22T09:00:08.674Z,999.8
2018-01-22T09:01:10.078Z,999.7
2018-01-22T09:02:11.480Z,999.8
2018-01-22T09:03:12.997Z,999.8
2018-01-22T09:04:14.410Z,999.8
2018-01-22T09:05:15.810Z,999.8
2018-01-22T09:06:17.321Z,999.8
2018-01-22T09:07:18.726Z,999.8
2018-01-22T09:08:20.198Z,999.8
2018-01-22T09:09:21.598Z,999.8
2018-01-22T09:10:23.009Z,999.8
2018-01-22T09:11:24.418Z,999.8
2018-01-22T09:12:25.819Z,999.9
2018-01-22T09:13:27.218Z,999.8
2018-01-22T09:14:28.628Z,999.9
2018-01-22T09:15:30.028Z,999.8
2018-01-22T09:16:31.518Z,999.9
2018-01-22T09:17:32.917Z,999.9
2018-01-22T09:18:34.319Z,999.9
2018-01-22T09:19:35.841Z,1000.0
2018-01-22T09:20:37.244Z,1000.0
2018-01-22T09:21:38.721Z,999.9
2018-01-22T09:22:40.125Z,1000.0
2018-01-22T09:23:41.602Z,1000.0
2018-01-22T09:24:43.004Z,1000.0
2018-01-22T09:25:44.484Z,1000.0
2018-01-22T09:26:45.886Z,1000.1
2018-01-22T09:27:47.368Z,1000.1
2018-01-22T09:28:48.768Z,1000.1
2018-01-22T09:29:50.170Z,1000.2
2018-01-22T09:30:51.686Z,1000.2
2018-01-22T09:31:53.090Z,1000.2
2018-01-22T09:32:54.491Z,1000.2
2018-01-22T09:33:56.013Z,1000.2
2018-01-22T09:34:57.416Z,1000.2
2018-01-22T09:35:58.820Z,1000.2
2018-01-22T09:37:00.330Z,1000.2
2018-01-22T09:38:01.731Z,1000.3
2018-01-22T09:39:03.211Z,1000.2
2018-01-22T09:40:04.611Z,1000.2
2018-01-22T09:41:06.015Z,1000.3
2018-01-22T09:42:07.533Z,1000.3
2018-01-22T09:43:08.936Z,1000.3
2018-01-22T09:44:10.339Z,1000.3
2018-01-22T09:45:11.855Z,1000.4
2018-01-22T09:46:13.265Z,1000.3
2018-01-22T09:47:14.735Z,1000.3
2018-01-22T09:48:16.142Z,1000.3
2018-01-22T09:49:17.617Z,1000.3
2018-01-22T09:50:19.023Z,1000.3
2018-01-22T09:51:20.499Z,1000.3
2018-01-22T09:52:21.900Z,1000.3
2018-01-22T09:53:23.379Z,1000.3
2018-01-22T09:54:24.781Z,1000.3
2018-01-22T09:55:26.258Z,1000.4
2018-01-22T09:56:27.701Z,1000.4
2018-01-22T09:57:29.103Z,1000.3
2018-01-22T09:58:30.513Z,1000.3
2018-01-22T09:59:32.022Z,1000.3
2018-01-22T10:00:33.426Z,1000.4
2018-01-22T10:01:34.903Z,1000.4
2018-01-22T10:02:36.307Z,1000.4
2018-01-22T10:03:37.787Z,1000.4
2018-01-22T10:04:39.196Z,1000.4
2018-01-22T10:05:40.599Z,1000.4
2018-01-22T10:06:42.110Z,1000.4
2018-01-22T10:07:43.509Z,1000.4
2018-01-22T10:08:44.913Z,1000.4
2018-01-22T10:09:46.428Z,1000.4
2018-01-22T10:10:47.840Z,1000.4
2018-01-22T10:11:49.244Z,1000.4
2018-01-22T10:12:50.748Z,1000.5
2018-01-22T10:13:52.152Z,1000.4
2018-01-22T10:14:53.555Z,1000.5
2018-01-22T10:15:55.072Z,1000.4
2018-01-22T10:16:56.479Z,1000.4
2018-01-22T10:17:57.894Z,1000.5
2018-01-22T10:18:59.393Z,1000.5
2018-01-22T10:20:00.799Z,1000.5
2018-01-22T10:21:02.201Z,1000.5
2018-01-22T10:22:03.760Z,1000.6
2018-01-22T10:23:05.170Z,1000.5
2018-01-22T10:24:06.643Z,1000.6
2018-01-22T10:25:08.046Z,1000.6
2018-01-22T10:26:09.477Z,1000.6
2018-01-22T10:27:10.882Z,1000.6
2018-01-22T10:28:12.357Z,1000.6
2018-01-22T10:29:13.813Z,1000.7
2018-01-22T10:30:15.238Z,1000.7
2018-01-22T10:31:16.642Z,1000.7
2018-01-22T10:32:18.861Z,1000.7
2018-01-22T10:33:20.378Z,1000.7
2018-01-22T10:34:21.792Z,1000.7
2018-01-22T10:35:23.190Z,1000.7
2018-01-22T10:36:24.700Z,1000.7
2018-01-22T10:37:26.105Z,1000.8
2018-01-22T10:38:27.583Z,1000.7
2018-01-22T10:39:28.986Z,1000.8
2018-01-22T10:40:30.462Z,1000.8
2018-01-22T10:41:31.871Z,1000.8
2018-01-22T10:42:33.344Z,1000.9
2018-01-22T10:43:34.745Z,1000.8
2018-01-22T10:44:36.225Z,1000.8
2018-01-22T10:45:37.627Z,1000.8
2018-01-22T10:46:39.106Z,1000.8
2018-01-22T10:47:40.512Z,1000.8
2018-01-22T10:48:41.985Z,1000.8
2018-01-22T10:49:43.391Z,1000.8
2018-01-22T10:50:44.869Z,1000.8
2018-01-22T10:51:46.654Z,1000.8
2018-01-22T10:52:48.159Z,1000.7
2018-01-22T10:53:49.564Z,1000.8
2018-01-22T10:54:51.040Z,1000.8
2018-01-22T10:55:52.445Z,1000.8
2018-01-22T10:56:53.848Z,1000.8
2018-01-22T10:57:55.369Z,1000.8
2018-01-22T10:58:56.774Z,1000.9
2018-01-22T10:59:58.175Z,1000.8
2018-01-22T11:00:59.690Z,1000.8
2018-01-22T11:02:01.089Z,1000.8
2018-01-22T11:03:02.500Z,1000.8
2018-01-22T11:04:03.900Z,1000.8
2018-01-22T11:05:05.307Z,1000.8
2018-01-22T11:06:06.886Z,1000.9
2018-01-22T11:07:08.294Z,1000.8
2018-01-22T11:08:09.776Z,1000.9
2018-01-22T11:09:11.174Z,1000.8
2018-01-22T11:10:12.650Z,1000.8
2018-01-22T11:11:14.054Z,1000.8
2018-01-22T11:12:15.532Z,1000.8
2018-01-22T11:13:16.939Z,1000.9
2018-01-22T11:14:18.412Z,1000.9
2018-01-22T11:15:19.819Z,1000.8
2018-01-22T11:16:21.227Z,1000.8
2018-01-22T11:17:22.734Z,1000.9
2018-01-22T11:18:24.137Z,1000.8
2018-01-22T11:19:25.543Z,1000.8
2018-01-22T11:20:27.055Z,1000.8
2018-01-22T11:21:28.463Z,1000.8
2018-01-22T11:22:29.871Z,1000.8
2018-01-22T11:23:31.378Z,1000.9
2018-01-22T11:24:32.787Z,1000.9
2018-01-22T11:25:34.239Z,1000.9
2018-01-22T11:26:35.699Z,1000.9
2018-01-22T11:27:37.105Z,1000.9
2018-01-22T11:28:38.578Z,1000.9
2018-01-22T11:29:39.983Z,1000.9
2018-01-22T11:30:41.460Z,1000.9
2018-01-22T11:31:42.868Z,1000.9
2018-01-22T11:32:44.344Z,1001.0
2018-01-22T11:33:46.124Z,1000.9
2018-01-22T11:34:47.636Z,1000.9
2018-01-22T11:35:49.039Z,1000.9
2018-01-22T11:36:50.531Z,1001.0
2018-01-22T11:37:51.922Z,1000.9
2018-01-22T11:38:53.398Z,1001.0
2018-01-22T11:39:54.802Z,1001.0
2018-01-22T11:40:56.276Z,1001.1
2018-01-22T11:41:57.683Z,1001.0
2018-01-22T11:42:59.158Z,1001.1
2018-01-22T11:44:00.564Z,1001.0
2018-01-22T11:45:02.040Z,1001.1
2018-01-22T11:46:03.449Z,1001.0
2018-01-22T11:47:04.932Z,1001.0
2018-01-22T11:48:06.336Z,1001.0
2018-01-22T11:49:07.803Z,1001.0
2018-01-22T11:50:09.598Z,1001.0
2018-01-22T11:51:11.092Z,1001.1
2018-01-22T11:52:12.500Z,1001.1
2018-01-22T11:53:13.909Z,1001.0
2018-01-22T11:54:15.414Z,1001.0
2018-01-22T11:55:16.819Z,1001.0
2018-01-22T11:56:18.229Z,1001.0
2018-01-22T11:57:20.018Z,1001.0
2018-01-22T11:58:21.425Z,1001.0
2018-01-22T11:59:23.026Z,1001.1
2018-01-22T12:00:24.817Z,1001.1
2018-01-22T12:01:26.317Z,1001.0
2018-01-22T12:02:27.721Z,1001.1
2018-01-22T12:03:29.509Z,1001.1
2018-01-22T12:04:31.047Z,1001.2
2018-01-22T12:05:32.455Z,1001.1
2018-01-22T12:06:33.861Z,1001.1
2018-01-22T12:07:35.370Z,1001.3
2018-01-22T12:08:36.775Z,1001.2
2018-01-22T12:09:38.254Z,1001.3
2018-01-22T12:10:39.661Z,1001.4
2018-01-22T12:11:41.131Z,1001.3
2018-01-22T12:12:42.537Z,1001.4
2018-01-22T12:13:44.011Z,1001.3
2018-01-22T12:14:45.821Z,1001.4
2018-01-22T12:15:47.302Z,1001.4
2018-01-22T12:16:49.094Z,1001.4
2018-01-22T12:17:50.513Z,1001.3
2018-01-22T12:18:52.034Z,1001.3
2018-01-22T12:19:53.441Z,1001.4
2018-01-22T12:20:54.854Z,1001.3
2018-01-22T12:21:56.361Z,1001.4
2018-01-22T12:22:57.769Z,1001.3
2018-01-22T12:23:59.238Z,1001.2
2018-01-22T12:25:00.645Z,1001.3
2018-01-22T12:26:02.116Z,1001.3
2018-01-22T12:27:03.527Z,1001.3
2018-01-22T12:28:04.933Z,1001.3
2018-01-22T12:29:06.438Z,1001.4
2018-01-22T12:30:07.850Z,1001.4
2018-01-22T12:31:09.251Z,1001.3
2018-01-22T12:32:10.761Z,1001.4
2018-01-22T12:33:12.165Z,1001.4
2018-01-22T12:34:13.642Z,1001.4
2018-01-22T12:35:15.052Z,1001.4
2018-01-22T12:36:16.524Z,1001.4
2018-01-22T12:37:17.929Z,1001.4
2018-01-22T12:38:19.403Z,1001.5
2018-01-22T12:39:20.808Z,1001.5
2018-01-22T12:40:22.669Z,1001.5
2018-01-22T12:41:24.072Z,1001.5
2018-01-22T12:42:25.978Z,1001.6
2018-01-22T12:43:27.395Z,1001.5
2018-01-22T12:44:28.865Z,1001.5
2018-01-22T12:45:30.271Z,1001.6
2018-01-22T12:46:31.748Z,1001.6
2018-01-22T12:47:33.152Z,1001.6
2018-01-22T12:48:35.008Z,1001.6
2018-01-22T12:49:36.415Z,1001.6
2018-01-22T12:50:37.921Z,1001.6
2018-01-22T12:51:39.325Z,1001.6
2018-01-22T12:52:40.786Z,1001.6
2018-01-22T12:53:42.239Z,1001.7
2018-01-22T12:54:43.650Z,1001.7
2018-01-22T12:55:45.058Z,1001.8
2018-01-22T12:56:47.586Z,1001.7